Time;durP1;ratioP1;P1;durP2;ratioP2;P2;SDS_P1;SDS_P2;PMS_P1;PMS_P2;Temp;Humidity;BMP_temperature;BMP_pressure;BME280_temperature;BME280_humidity;BME280_pressure;Samples;Min_cycle;Max_cycle;Signal;HPM_P1;HPM_P2
2023/04/11 00:02:50;;;;;;;36.22;23.67;;;;;;;7.46;100.00;97518.81;10411366;28;20132;-54
2023/04/11 00:07:49;;;;;;;31.15;20.80;;;;;;;7.43;100.00;97521.38;10410209;28;20060;-54
2023/04/11 00:12:48;;;;;;;31.27;20.48;;;;;;;7.41;100.00;97517.94;10410548;28;20514;-53
2023/04/11 00:17:47;;;;;;;30.83;20.65;;;;;;;7.40;100.00;97505.84;10410008;28;20755;-53
2023/04/11 00:22:47;;;;;;;26.10;18.13;;;;;;;7.46;100.00;97508.50;10410750;28;20137;-53
2023/04/11 00:27:46;;;;;;;;;;;;;;;7.46;100.00;97513.66;10411414;28;20056;-53
2023/04/11 00:32:46;;;;;;;23.55;15.68;;;;;;;7.44;100.00;97495.56;10409600;28;19917;-53
2023/04/11 00:37:45;;;;;;;24.20;14.82;;;;;;;7.10;100.00;97436.75;10409784;28;20481;-53
2023/04/11 00:42:44;;;;;;;23.15;16.10;;;;;;;7.44;100.00;97476.63;10408837;28;20082;-52
2023/04/11 00:47:43;;;;;;;21.00;14.85;;;;;;;7.41;100.00;97467.16;10407267;28;20055;-53
2023/04/11 00:52:46;;;;;;;20.75;14.50;;;;;;;7.34;100.00;97473.09;10407972;28;20068;-53
2023/04/11 00:57:45;;;;;;;19.35;13.32;;;;;;;7.28;98.81;97482.50;10407714;28;20749;-53
2023/04/11 01:02:45;;;;;;;;;;;;;;;7.23;99.33;97480.75;10409496;28;20497;-53
2023/04/11 01:07:47;;;;;;;22.30;15.17;;;;;;;7.01;99.85;97479.72;10409160;28;19951;-53
2023/04/11 01:12:47;;;;;;;19.90;13.48;;;;;;;7.03;99.86;97477.16;10408092;28;20044;-53
2023/04/11 01:17:46;;;;;;;18.00;12.27;;;;;;;7.08;100.00;97464.25;10408272;28;20060;-53
2023/04/11 01:22:48;;;;;;;21.95;14.25;;;;;;;7.18;100.00;97472.09;10407730;28;20098;-52
2023/04/11 01:27:47;;;;;;;23.15;16.15;;;;;;;6.91;100.00;97417.69;10407908;28;20052;-51
2023/04/11 01:32:46;;;;;;;27.70;18.20;;;;;;;7.11;100.00;97462.59;10407375;28;20102;-50
2023/04/11 01:37:45;;;;;;;25.65;17.50;;;;;;;7.25;100.00;97468.72;10405759;28;20036;-50
2023/04/11 01:42:45;;;;;;;27.77;18.27;;;;;;;7.22;100.00;97452.38;10404837;28;20032;-50
2023/04/11 01:47:44;;;;;;;25.73;17.77;;;;;;;5.83;100.00;97212.34;10404962;28;20498;-51
2023/04/11 01:52:43;;;;;;;28.67;18.77;;;;;;;7.36;100.00;97460.22;10404797;28;20059;-50
2023/04/11 01:57:43;;;;;;;30.85;20.08;;;;;;;7.40;100.00;97456.81;10404135;28;20124;-51
2023/04/11 02:02:42;;;;;;;33.92;21.08;;;;;;;7.33;100.00;97440.38;10403223;28;20481;-51
2023/04/11 02:07:41;;;;;;;32.85;20.60;;;;;;;7.40;100.00;97446.47;10404777;28;20382;-51
2023/04/11 02:12:40;;;;;;;33.83;21.40;;;;;;;7.35;100.00;97449.00;10405486;28;20040;-50
2023/04/11 02:17:43;;;;;;;32.50;20.67;;;;;;;7.35;100.00;97448.13;10406486;28;20059;-51
2023/04/11 02:22:42;;;;;;;37.13;22.15;;;;;;;7.33;100.00;97444.69;10405283;28;20135;-51
2023/04/11 02:27:41;;;;;;;38.85;25.88;;;;;;;7.25;100.00;97457.53;10406155;28;20058;-50
2023/04/11 02:32:40;;;;;;;37.47;24.05;;;;;;;7.27;100.00;97465.31;10406006;28;20048;-49
2023/04/11 02:37:39;;;;;;;38.30;25.25;;;;;;;7.20;100.00;97460.09;10405973;28;20913;-50
2023/04/11 02:42:41;;;;;;;;;;;;;;;7.09;100.00;97461.72;10406633;28;20126;-47
2023/04/11 02:47:40;;;;;;;36.30;23.05;;;;;;;7.07;100.00;97463.41;10405554;28;19936;-48
2023/04/11 02:52:41;;;;;;;37.47;24.75;;;;;;;7.10;100.00;97457.41;10405563;28;20086;-49
2023/04/11 02:57:39;;;;;;;42.65;25.73;;;;;;;7.11;100.00;97464.31;10405768;28;20071;-50
2023/04/11 03:02:38;;;;;;;42.67;26.15;;;;;;;7.19;100.00;97458.38;10405215;28;20036;-49
2023/04/11 03:07:39;;;;;;;38.92;23.92;;;;;;;7.08;100.00;97464.25;10405095;28;20474;-50
2023/04/11 03:12:38;;;;;;;42.15;26.08;;;;;;;7.11;100.00;97452.28;10404862;28;20068;-51
2023/04/11 03:17:37;;;;;;;43.53;26.60;;;;;;;7.00;100.00;97407.47;10404798;28;20025;-50
2023/04/11 03:22:37;;;;;;;36.10;23.60;;;;;;;7.18;100.00;97427.38;10405026;28;20048;-50
2023/04/11 03:27:36;;;;;;;32.20;20.23;;;;;;;7.18;100.00;97415.34;10404490;28;20827;-50
2023/04/11 03:32:35;;;;;;;28.13;18.60;;;;;;;7.23;100.00;97413.66;10407428;28;20068;-51
2023/04/11 03:37:35;;;;;;;33.40;21.02;;;;;;;7.29;100.00;97402.50;10412364;28;20067;-50
2023/04/11 03:42:35;;;;;;;31.88;19.65;;;;;;;7.03;100.00;97336.13;10411197;28;20472;-51
2023/04/11 03:47:33;;;;;;;31.77;19.60;;;;;;;6.82;100.00;97298.16;10408151;28;20055;-50
2023/04/11 03:52:33;;;;;;;35.13;21.67;;;;;;;7.34;100.00;97393.06;10408803;28;20040;-49
2023/04/11 03:57:32;;;;;;;35.60;21.52;;;;;;;7.36;100.00;97400.84;10407493;28;20872;-51
2023/04/11 04:02:31;;;;;;;23.75;16.95;;;;;;;7.38;100.00;97399.09;10408220;28;20580;-51
2023/04/11 04:07:30;;;;;;;40.63;27.33;;;;;;;7.15;99.18;97391.25;10409632;28;20560;-51
2023/04/11 04:12:29;;;;;;;49.63;30.70;;;;;;;7.00;99.66;97390.25;10410153;28;20060;-51
2023/04/11 04:17:28;;;;;;;39.47;25.75;;;;;;;6.90;100.00;97393.63;10408206;28;20020;-51
2023/04/11 04:22:28;;;;;;;36.42;23.80;;;;;;;6.69;99.99;97384.00;10406855;28;20040;-53
2023/04/11 04:27:27;;;;;;;44.15;29.92;;;;;;;6.78;100.00;97376.34;10408050;28;20719;-53
2023/04/11 04:32:27;;;;;;;66.93;41.85;;;;;;;6.85;100.00;97384.16;10410450;28;20541;-52
2023/04/11 04:37:26;;;;;;;56.00;34.50;;;;;;;6.83;100.00;97387.56;10411077;28;20169;-52
2023/04/11 04:42:27;;;;;;;56.08;34.70;;;;;;;6.91;100.00;97386.75;10409184;28;20075;-52
2023/04/11 04:47:31;;;;;;;57.45;34.80;;;;;;;6.99;100.00;97387.69;10408798;28;20078;-52
2023/04/11 04:52:30;;;;;;;52.80;30.35;;;;;;;7.17;100.00;97382.66;10406296;28;20502;-52
2023/04/11 04:57:32;;;;;;;50.25;30.52;;;;;;;5.79;99.31;97135.91;10408196;28;20422;-50
2023/04/11 05:02:31;;;;;;;52.65;30.30;;;;;;;7.22;100.00;97373.22;10405448;28;20135;-51
2023/04/11 05:07:30;;;;;;;54.92;29.13;;;;;;;7.39;100.00;97368.16;10406798;28;20035;-50
2023/04/11 05:12:29;;;;;;;43.25;26.95;;;;;;;7.52;100.00;97373.41;10405723;28;20035;-51
2023/04/11 05:17:28;;;;;;;41.00;26.33;;;;;;;7.62;100.00;97368.28;10404883;28;20127;-50
2023/04/11 05:22:27;;;;;;;;;;;;;;;7.83;99.79;97369.25;10407321;28;20122;-50
2023/04/11 05:27:26;;;;;;;36.22;24.17;;;;;;;7.90;99.48;97373.56;10403976;28;19938;-50
2023/04/11 05:32:25;;;;;;;41.35;26.15;;;;;;;8.03;98.35;97370.16;10401826;28;20131;-50
2023/04/11 05:37:24;;;;;;;48.58;34.53;;;;;;;7.70;98.33;97315.81;10406469;28;20078;-50
2023/04/11 05:42:23;;;;;;;43.45;29.30;;;;;;;8.04;98.57;97368.44;10408447;28;20475;-49
2023/04/11 05:47:22;;;;;;;45.15;29.33;;;;;;;8.11;98.30;97358.97;10406468;28;20481;-48
2023/04/11 05:52:21;;;;;;;50.53;33.10;;;;;;;8.17;98.65;97359.00;10406467;28;20671;-50
2023/04/11 05:57:20;;;;;;;43.67;30.58;;;;;;;8.35;98.92;97359.03;10405698;28;20120;-49
2023/04/11 06:02:19;;;;;;;;;;;;;;;8.62;98.68;97359.91;10407716;28;20060;-51
2023/04/11 06:07:20;;;;;;;46.42;30.50;;;;;;;8.88;97.39;97349.53;10405435;28;20037;-50
2023/04/11 06:12:19;;;;;;;45.33;32.10;;;;;;;9.14;96.87;97349.53;10407564;28;20524;-50
2023/04/11 06:17:18;;;;;;;49.58;32.97;;;;;;;9.30;95.88;97340.91;10404892;28;20462;-50
2023/04/11 06:22:17;;;;;;;68.55;42.47;;;;;;;9.31;94.40;97334.00;10405042;28;20054;-51
2023/04/11 06:27:15;;;;;;;52.47;32.17;;;;;;;9.56;93.71;97334.78;10403940;28;20024;-50
2023/04/11 06:32:15;;;;;;;45.55;27.48;;;;;;;9.67;93.81;97338.16;10405703;28;20076;-48
2023/04/11 06:37:14;;;;;;;49.30;30.20;;;;;;;9.96;93.56;97339.78;10402727;28;20466;-52
2023/04/11 06:42:13;;;;;;;;;;;;;;;10.14;93.71;97328.44;10406014;28;20485;-51
2023/04/11 06:47:12;;;;;;;51.92;31.38;;;;;;;10.37;92.95;97323.94;10405269;28;20328;-51
2023/04/11 06:52:11;;;;;;;52.78;35.63;;;;;;;10.54;90.42;97323.84;10405740;28;20498;-51
2023/04/11 06:57:10;;;;;;;47.63;30.30;;;;;;;10.58;89.79;97309.94;10404965;28;20044;-49
2023/04/11 07:02:08;;;;;;;41.45;28.23;;;;;;;10.56;87.82;97301.31;10406289;28;20041;-51
2023/04/11 07:07:07;;;;;;;36.53;23.90;;;;;;;10.90;87.26;97310.59;10408347;28;20051;-50
2023/04/11 07:12:06;;;;;;;29.02;19.73;;;;;;;11.01;83.15;97309.63;10413392;28;20037;-51
2023/04/11 07:17:05;;;;;;;22.35;16.65;;;;;;;10.85;79.65;97302.81;10412675;28;20036;-51
2023/04/11 07:22:04;;;;;;;28.60;18.30;;;;;;;10.79;80.90;97248.34;10412714;28;20056;-49
2023/04/11 07:27:03;;;;;;;22.40;16.38;;;;;;;11.47;80.21;97303.03;10412029;28;20029;-51
2023/04/11 07:32:02;;;;;;;22.40;16.85;;;;;;;11.62;76.78;97296.81;10412355;28;20040;-51
2023/04/11 07:37:02;;;;;;;21.23;14.32;;;;;;;11.62;73.47;97292.47;10410562;28;20340;-52
2023/04/11 07:42:01;;;;;;;22.45;16.35;;;;;;;11.73;76.56;97263.72;10411633;28;20056;-51
2023/04/11 07:47:00;;;;;;;;;;;;;;;12.06;75.88;97280.63;10398366;28;20516;-50
2023/04/11 07:51:59;;;;;;;20.38;14.80;;;;;;;12.34;74.39;97269.81;10405796;28;20404;-51
2023/04/11 07:56:58;;;;;;;18.30;13.80;;;;;;;12.56;71.96;97262.53;10405725;28;20024;-52
2023/04/11 08:01:58;;;;;;;;;;;;;;;12.79;69.56;97264.72;10407516;28;20508;-51
2023/04/11 08:06:57;;;;;;;17.20;13.15;;;;;;;12.58;65.95;97255.56;10406685;28;20433;-51
2023/04/11 08:11:56;;;;;;;;;;;;;;;12.41;65.76;97247.16;10406222;28;20060;-52
2023/04/11 08:16:55;;;;;;;16.52;12.85;;;;;;;12.12;63.95;97237.19;10405461;28;20011;-52
2023/04/11 08:21:55;;;;;;;17.27;13.50;;;;;;;12.07;65.69;97226.84;10410247;28;20032;-52
2023/04/11 08:26:54;;;;;;;18.85;14.35;;;;;;;12.06;67.04;97239.00;10410176;28;20063;-51
2023/04/11 08:31:53;;;;;;;17.55;13.68;;;;;;;12.05;69.36;97176.59;10409024;28;20056;-51
2023/04/11 08:36:52;;;;;;;;;;;;;;;12.65;66.67;97219.84;10411063;28;20111;-51
2023/04/11 08:41:50;;;;;;;17.20;12.98;;;;;;;11.22;63.74;96967.44;10409509;28;19969;-53
2023/04/11 08:46:49;;;;;;;;;;;;;;;13.02;63.81;97216.56;10411170;28;20032;-51
2023/04/11 08:51:52;;;;;;;16.15;12.20;;;;;;;13.35;60.92;97207.19;10408228;28;19920;-52
2023/04/11 08:56:51;;;;;;;16.13;12.15;;;;;;;12.93;56.00;97199.38;10408154;28;21042;-52
2023/04/11 09:01:50;;;;;;;;;;;;;;;12.98;59.94;97194.94;10409376;28;20033;-52
2023/04/11 09:06:57;;;;;;;20.20;14.35;;;;;;;13.26;58.62;97184.81;10410287;28;20247;-51
2023/04/11 09:11:56;;;;;;;15.27;11.55;;;;;;;13.13;53.43;97171.16;10406770;28;20052;-52
2023/04/11 09:16:58;;;;;;;;;;;;;;;13.45;56.27;97158.38;10406838;28;20024;-52
2023/04/11 09:21:59;;;;;;;14.63;10.98;;;;;;;13.63;54.27;97144.06;10405157;28;20015;-52
2023/04/11 09:27:06;;;;;;;15.98;10.70;;;;;;;13.94;52.37;97139.88;10404190;28;20954;-52
2023/04/11 09:32:29;;;;;;;15.25;11.40;;;;;;;14.24;57.11;97126.06;10402862;28;20143;-52
2023/04/11 09:37:41;;;;;;;20.92;13.15;;;;;;;14.71;55.04;97119.63;10387628;28;20960;-53
2023/04/11 09:42:41;;;;;;;13.02;9.68;;;;;;;14.13;48.83;97114.16;10398905;28;20717;-52
2023/04/11 09:47:40;;;;;;;12.55;10.45;;;;;;;14.51;52.29;97101.00;10402304;28;20122;-52
2023/04/11 09:52:41;;;;;;;;;;;;;;;14.85;49.42;97087.03;10406652;28;20043;-52
2023/04/11 09:57:45;;;;;;;12.20;9.68;;;;;;;14.85;52.30;97014.78;10403020;28;20015;-52
2023/04/11 10:02:47;;;;;;;14.40;9.88;;;;;;;15.56;50.97;97052.63;10401906;28;20064;-52
2023/04/11 10:08:09;;;;;;;14.15;9.75;;;;;;;14.96;45.00;96964.78;10417169;28;20060;-52
2023/04/11 10:13:38;;;;;;;13.30;10.05;;;;;;;14.91;46.59;97051.13;10402732;28;20529;-52
2023/04/11 10:18:49;;;;;;;12.60;7.27;;;;;;;14.28;41.91;97057.25;10396435;28;20132;-52
2023/04/11 10:24:22;;;;;;;10.82;7.70;;;;;;;13.78;44.90;97044.63;10401822;28;20056;-52
2023/04/11 10:29:27;;;;;;;10.52;7.00;;;;;;;14.16;44.71;97045.41;10402917;28;20060;-52
2023/04/11 10:34:26;;;;;;;8.32;4.88;;;;;;;14.04;36.78;97020.47;10401591;28;20064;-52
2023/04/11 10:39:44;;;;;;;;;;;;;;;13.70;39.26;97034.41;10397833;28;20139;-51
2023/04/11 10:44:43;;;;;;;9.38;5.22;;;;;;;13.22;36.66;96997.31;10402240;28;19960;-52
2023/04/11 10:49:41;;;;;;;;;;;;;;;13.47;37.52;97005.38;10400257;28;20108;-52
2023/04/11 10:54:40;;;;;;;8.40;5.80;;;;;;;13.39;36.68;96981.28;10401213;28;19983;-52
2023/04/11 10:59:49;;;;;;;;;;;;;;;13.76;36.33;97005.56;10401544;28;20036;-52
2023/04/11 11:04:48;;;;;;;6.85;5.00;;;;;;;13.91;38.22;96995.63;10401327;28;19998;-52
2023/04/11 11:09:50;;;;;;;9.15;5.75;;;;;;;13.71;37.85;96989.19;10398183;28;20052;-52
2023/04/11 11:14:49;;;;;;;8.07;5.25;;;;;;;13.81;37.27;96981.97;10402069;28;20078;-52
2023/04/11 11:19:48;;;;;;;;;;;;;;;13.48;36.46;96997.53;10400946;28;20032;-53
2023/04/11 11:24:47;;;;;;;7.50;5.20;;;;;;;13.46;36.01;96969.81;10403111;28;20339;-52
2023/04/11 11:29:45;;;;;;;;;;;;;;;13.50;36.07;96967.09;10401246;28;20056;-51
2023/04/11 11:34:44;;;;;;;8.00;4.90;;;;;;;13.53;36.99;96955.72;10399754;28;19916;-52
2023/04/11 11:39:43;;;;;;;;;;;;;;;13.88;36.61;96946.16;10401187;28;20135;-50
2023/04/11 11:44:42;;;;;;;8.73;6.15;;;;;;;13.98;37.88;96960.63;10399982;28;19918;-52
2023/04/11 11:49:42;;;;;;;;;;;;;;;13.74;36.72;96949.97;10400342;28;20032;-51
2023/04/11 11:54:47;;;;;;;7.95;5.30;;;;;;;13.37;36.78;96939.59;10404739;28;19951;-51
2023/04/11 11:59:52;;;;;;;8.23;5.35;;;;;;;13.67;37.47;96921.50;10405646;28;20136;-51
2023/04/11 12:04:58;;;;;;;8.15;4.88;;;;;;;14.05;36.39;96925.66;10407036;28;20071;-52
2023/04/11 12:10:01;;;;;;;8.00;5.75;;;;;;;14.22;37.06;96917.38;10406972;28;20055;-51
2023/04/11 12:15:01;;;;;;;8.93;5.70;;;;;;;13.79;34.71;96905.53;10407027;28;20150;-51
2023/04/11 12:20:03;;;;;;;7.53;5.90;;;;;;;14.03;36.97;96906.63;10407025;28;20484;-52
2023/04/11 12:25:13;;;;;;;8.68;5.88;;;;;;;14.30;38.16;96910.16;10409775;28;20071;-52
2023/04/11 12:30:15;;;;;;;8.25;6.15;;;;;;;14.08;35.89;96919.53;10404391;28;20107;-52
2023/04/11 12:35:14;;;;;;;8.32;5.63;;;;;;;14.03;37.42;96903.13;10405623;28;20143;-51
2023/04/11 12:40:14;;;;;;;8.98;5.78;;;;;;;13.97;36.21;96889.38;10406329;28;20064;-52
2023/04/11 12:45:14;;;;;;;10.18;7.18;;;;;;;14.10;36.26;96875.97;10403700;28;20068;-52
2023/04/11 12:50:13;;;;;;;8.35;5.95;;;;;;;14.28;35.30;96872.81;10405341;28;20222;-51
2023/04/11 12:55:12;;;;;;;;;;;;;;;14.09;35.77;96871.66;10406011;28;20031;-50
2023/04/11 13:00:12;;;;;;;10.88;6.35;;;;;;;13.92;37.37;96865.19;10405156;28;19924;-50
2023/04/11 13:05:12;;;;;;;8.50;5.80;;;;;;;13.76;37.51;96843.03;10404941;28;20114;-51
2023/04/11 13:10:12;;;;;;;7.82;5.40;;;;;;;14.08;36.26;96869.97;10405643;28;20671;-52
2023/04/11 13:15:13;;;;;;;9.63;6.57;;;;;;;14.18;36.77;96855.72;10405535;28;20056;-52
2023/04/11 13:20:13;;;;;;;8.30;5.28;;;;;;;14.33;36.12;96855.25;10404685;28;20469;-51
2023/04/11 13:25:12;;;;;;;6.90;5.15;;;;;;;14.41;36.31;96852.44;10404129;28;20068;-51
2023/04/11 13:30:11;;;;;;;9.77;5.80;;;;;;;14.49;36.59;96841.75;10404200;28;20083;-52
2023/04/11 13:35:10;;;;;;;10.30;6.20;;;;;;;14.27;37.05;96855.47;10403624;28;20067;-52
2023/04/11 13:40:10;;;;;;;;;;;;;;;14.06;37.26;96825.66;10403129;28;20127;-52
2023/04/11 13:45:10;;;;;;;10.57;7.13;;;;;;;14.02;36.82;96836.22;10404411;28;19959;-51
2023/04/11 13:50:09;;;;;;;9.00;6.60;;;;;;;13.93;37.69;96826.91;10402740;28;20060;-53
2023/04/11 13:55:08;;;;;;;9.90;7.10;;;;;;;13.92;38.14;96812.16;10403725;28;20075;-52
2023/04/11 14:00:10;;;;;;;;;;;;;;;14.05;37.45;96803.06;10403451;28;20112;-52
2023/04/11 14:05:10;;;;;;;9.43;5.78;;;;;;;14.41;36.45;96795.84;10401669;28;20011;-53
2023/04/11 14:10:09;;;;;;;10.02;6.43;;;;;;;14.20;37.12;96796.53;10402551;28;20059;-51
2023/04/11 14:15:09;;;;;;;11.10;7.18;;;;;;;14.34;37.16;96802.19;10401017;28;20048;-52
2023/04/11 14:20:10;;;;;;;7.90;5.30;;;;;;;14.50;36.97;96804.28;10402301;28;20107;-52
2023/04/11 14:25:10;;;;;;;9.30;6.10;;;;;;;14.44;36.94;96794.91;10402426;28;20135;-52
2023/04/11 14:30:11;;;;;;;9.60;6.68;;;;;;;14.45;37.02;96795.75;10399557;28;20059;-53
2023/04/11 14:35:10;;;;;;;13.57;9.30;;;;;;;14.54;38.04;96792.84;10401139;28;20079;-52
2023/04/11 14:40:12;;;;;;;8.73;6.40;;;;;;;14.45;39.59;96791.38;10403996;28;20046;-52
2023/04/11 14:45:11;;;;;;;12.13;8.38;;;;;;;14.51;40.37;96756.41;10401599;28;20502;-52
2023/04/11 14:50:10;;;;;;;8.82;7.00;;;;;;;14.58;39.02;96784.03;10402096;28;20498;-52
2023/04/11 14:55:09;;;;;;;8.73;6.30;;;;;;;14.75;36.98;96775.66;10400827;28;20139;-52
2023/04/11 15:00:15;;;;;;;6.55;4.90;;;;;;;14.31;36.71;96786.63;10399084;28;20131;-52
2023/04/11 15:05:16;;;;;;;9.70;6.43;;;;;;;14.12;38.84;96712.41;10402087;28;20072;-53
2023/04/11 15:10:18;;;;;;;8.65;6.00;;;;;;;14.70;37.59;96762.75;10400420;28;20123;-53
2023/04/11 15:15:17;;;;;;;43.55;22.83;;;;;;;14.16;37.95;96738.34;10397768;28;20156;-52
2023/04/11 15:20:16;;;;;;;;;;;;;;;14.32;37.60;96777.88;10402141;28;20032;-52
2023/04/11 15:25:15;;;;;;;14.80;8.23;;;;;;;14.15;37.52;96773.19;10401016;28;20011;-52
2023/04/11 15:30:14;;;;;;;9.32;6.80;;;;;;;14.01;38.24;96769.28;10405882;28;20186;-53
2023/04/11 15:35:13;;;;;;;;;;;;;;;13.88;38.37;96764.44;10408436;28;20568;-52
2023/04/11 15:40:14;;;;;;;8.23;5.47;;;;;;;13.69;37.86;96768.50;10406839;28;20412;-52
2023/04/11 15:45:13;;;;;;;12.40;6.47;;;;;;;13.79;38.45;96777.75;10405448;28;20132;-53
2023/04/11 15:50:11;;;;;;;;;;;;;;;13.40;37.76;96771.91;10406656;28;20127;-57
2023/04/11 15:55:10;;;;;;;15.00;9.50;;;;;;;13.55;38.25;96766.28;10407558;28;20357;-52
2023/04/11 16:00:09;;;;;;;;;;;;;;;13.45;37.16;96770.03;10403432;28;20032;-52
2023/04/11 16:05:08;;;;;;;8.57;6.28;;;;;;;13.30;37.31;96756.50;10401967;28;20386;-52
2023/04/11 16:10:08;;;;;;;10.10;6.60;;;;;;;13.28;36.76;96747.91;10401932;28;20542;-52
2023/04/11 16:15:07;;;;;;;12.85;8.07;;;;;;;13.38;37.70;96753.72;10405170;28;20067;-53
2023/04/11 16:20:08;;;;;;;8.52;5.90;;;;;;;13.39;37.96;96750.19;10399420;28;20131;-52
2023/04/11 16:25:07;;;;;;;11.27;7.80;;;;;;;13.62;38.45;96740.91;10402330;28;20479;-55
2023/04/11 16:30:08;;;;;;;29.17;17.35;;;;;;;13.78;39.23;96752.59;10402709;28;20238;-52
2023/04/11 16:35:07;;;;;;;25.17;15.13;;;;;;;13.87;39.75;96746.25;10400860;28;20127;-52
2023/04/11 16:40:10;;;;;;;15.13;9.80;;;;;;;13.94;41.34;96735.56;10398881;28;20680;-52
2023/04/11 16:45:09;;;;;;;14.13;7.95;;;;;;;13.65;41.32;96694.72;10402088;28;20582;-52
2023/04/11 16:50:08;;;;;;;12.48;8.50;;;;;;;13.60;42.40;96737.50;10401117;28;20112;-53
2023/04/11 16:55:08;;;;;;;27.85;15.77;;;;;;;13.31;43.35;96736.53;10403492;28;20119;-52
2023/04/11 17:00:10;;;;;;;17.98;11.68;;;;;;;13.32;43.72;96738.25;10403402;28;20060;-51
2023/04/11 17:05:09;;;;;;;15.48;8.88;;;;;;;13.25;44.11;96747.13;10402893;28;20059;-52
2023/04/11 17:10:08;;;;;;;12.05;8.48;;;;;;;13.06;44.41;96742.41;10400883;28;20115;-52
2023/04/11 17:15:08;;;;;;;14.65;10.27;;;;;;;12.84;44.74;96720.47;10402575;28;20063;-52
2023/04/11 17:20:09;;;;;;;39.10;26.02;;;;;;;12.94;44.99;96756.63;10403539;28;20111;-52
2023/04/11 17:25:08;;;;;;;14.52;10.82;;;;;;;12.91;46.21;96763.69;10403026;28;20635;-51
2023/04/11 17:30:08;;;;;;;27.95;20.17;;;;;;;12.87;46.62;96767.25;10401868;28;20111;-52
2023/04/11 17:35:07;;;;;;;26.27;16.80;;;;;;;12.42;47.37;96750.16;10401401;28;20608;-52
2023/04/11 17:40:12;;;;;;;15.18;10.93;;;;;;;12.03;46.79;96772.72;10401644;28;20112;-51
2023/04/11 17:45:12;;;;;;;15.57;10.75;;;;;;;12.03;46.49;96793.53;10401630;28;20131;-52
2023/04/11 17:50:12;;;;;;;19.95;11.40;;;;;;;12.05;46.51;96792.59;10398414;28;20536;-51
2023/04/11 17:55:14;;;;;;;13.95;9.73;;;;;;;11.99;46.59;96799.66;10401170;28;20509;-52
2023/04/11 18:00:25;;;;;;;32.47;20.75;;;;;;;11.88;46.31;96810.31;10400200;28;20132;-52
2023/04/11 18:05:31;;;;;;;18.23;12.65;;;;;;;11.77;46.45;96805.34;10400679;28;20070;-51
2023/04/11 18:10:31;;;;;;;13.20;10.05;;;;;;;11.72;46.40;96804.56;10398347;28;20059;-50
2023/04/11 18:15:31;;;;;;;28.27;20.45;;;;;;;11.73;46.02;96811.47;10402397;28;20131;-52
2023/04/11 18:20:30;;;;;;;17.58;12.85;;;;;;;11.79;45.62;96832.16;10400140;28;20127;-53
2023/04/11 18:25:29;;;;;;;;;;;;;;;11.97;45.81;96819.63;10401089;28;20135;-51
2023/04/11 18:30:28;;;;;;;12.85;9.13;;;;;;;12.01;45.19;96818.69;10400775;28;20094;-51
2023/04/11 18:35:27;;;;;;;;;;;;;;;11.91;45.04;96830.19;10400861;28;20056;-51
2023/04/11 18:40:26;;;;;;;29.63;22.20;;;;;;;11.97;45.35;96835.25;10395780;28;19917;-50
2023/04/11 18:45:25;;;;;;;26.45;18.73;;;;;;;11.58;45.84;96785.81;10397072;28;20043;-52
2023/04/11 18:50:26;;;;;;;13.75;9.27;;;;;;;11.63;46.70;96836.81;10397997;28;20138;-52
2023/04/11 18:55:26;;;;;;;16.70;12.88;;;;;;;11.64;47.28;96835.94;10399788;28;20135;-51
2023/04/11 19:00:25;;;;;;;30.15;21.20;;;;;;;11.80;47.39;96828.66;10397775;28;20566;-52
2023/04/11 19:05:24;;;;;;;;;;;;;;;11.56;47.16;96836.97;10405643;28;20123;-52
2023/04/11 19:10:23;;;;;;;17.00;12.02;;;;;;;11.54;47.64;96831.78;10406455;28;19951;-52
2023/04/11 19:15:22;;;;;;;43.00;29.65;;;;;;;11.64;47.74;96816.84;10406172;28;20040;-50
2023/04/11 19:20:25;;;;;;;12.98;9.55;;;;;;;11.55;47.78;96822.25;10405830;28;20541;-52
2023/04/11 19:25:24;;;;;;;12.25;9.18;;;;;;;11.56;47.48;96822.22;10399571;28;20474;-52
2023/04/11 19:30:23;;;;;;;35.20;24.20;;;;;;;11.65;47.88;96816.84;10404309;28;20079;-51
2023/04/11 19:35:23;;;;;;;21.48;16.30;;;;;;;11.77;48.02;96815.72;10407280;28;20072;-52
2023/04/11 19:40:22;;;;;;;9.88;7.55;;;;;;;11.71;47.56;96820.19;10405470;28;20132;-52
2023/04/11 19:45:21;;;;;;;11.38;8.80;;;;;;;11.38;48.26;96792.25;10406532;28;20068;-53
2023/04/11 19:50:21;;;;;;;11.73;8.32;;;;;;;11.48;48.54;96802.47;10404935;28;20086;-52
2023/04/11 19:55:20;;;;;;;10.82;8.27;;;;;;;11.08;48.73;96759.09;10404296;28;20075;-52
2023/04/11 20:00:19;;;;;;;10.05;6.32;;;;;;;10.95;49.20;96800.00;10404061;28;20091;-51
2023/04/11 20:05:20;;;;;;;10.02;7.70;;;;;;;11.27;49.28;96802.03;10404725;28;20138;-53
2023/04/11 20:10:19;;;;;;;19.33;11.98;;;;;;;11.15;49.96;96805.69;10403315;28;20072;-52
2023/04/11 20:15:18;;;;;;;35.28;20.08;;;;;;;11.16;50.37;96801.34;10404035;28;20550;-53
2023/04/11 20:20:18;;;;;;;10.77;6.80;;;;;;;11.02;50.16;96788.63;10404780;28;20036;-52
2023/04/11 20:25:17;;;;;;;13.70;8.68;;;;;;;11.21;50.17;96813.34;10406650;28;20494;-52
2023/04/11 20:30:16;;;;;;;9.77;6.75;;;;;;;10.98;50.06;96779.19;10405262;28;20509;-52
2023/04/11 20:35:15;;;;;;;16.80;9.77;;;;;;;11.25;50.67;96808.97;10406209;28;20051;-52
2023/04/11 20:40:15;;;;;;;11.43;7.28;;;;;;;11.21;50.49;96802.97;10404007;28;20039;-52
2023/04/11 20:45:19;;;;;;;10.48;6.38;;;;;;;11.14;50.59;96805.72;10403948;28;20072;-53
2023/04/11 20:50:20;;;;;;;10.75;7.13;;;;;;;11.16;50.12;96803.97;10402291;28;20139;-52
2023/04/11 20:55:19;;;;;;;54.67;33.80;;;;;;;11.08;49.91;96767.75;10403250;28;20127;-52
2023/04/11 21:00:18;;;;;;;12.05;9.15;;;;;;;11.33;50.50;96798.44;10402387;28;20135;-52
2023/04/11 21:05:20;;;;;;;;;;;;;;;11.27;49.98;96794.22;10401860;28;20576;-52
2023/04/11 21:10:19;;;;;;;9.88;7.05;;;;;;;11.16;50.57;96793.56;10401850;28;20014;-52
2023/04/11 21:15:19;;;;;;;21.17;13.00;;;;;;;11.08;50.56;96787.66;10401415;28;20130;-51
2023/04/11 21:20:19;;;;;;;11.27;7.75;;;;;;;11.10;51.20;96785.88;10403305;28;20143;-53
2023/04/11 21:25:18;;;;;;;11.57;8.02;;;;;;;10.88;51.49;96788.03;10402169;28;20087;-52
2023/04/11 21:30:17;;;;;;;9.35;5.97;;;;;;;10.77;51.83;96788.16;10402451;28;20028;-51
2023/04/11 21:35:16;;;;;;;7.93;5.63;;;;;;;10.73;51.74;96789.09;10401951;28;20139;-52
2023/04/11 21:40:15;;;;;;;;;;;;;;;10.77;51.90;96788.16;10402570;28;20140;-53
2023/04/11 21:45:14;;;;;;;8.05;5.75;;;;;;;10.60;52.63;96778.09;10402154;28;20228;-52
2023/04/11 21:50:13;;;;;;;;;;;;;;;10.63;51.86;96791.00;10401784;28;20533;-52
2023/04/11 21:55:14;;;;;;;9.63;6.00;;;;;;;10.53;52.87;96779.91;10400094;28;20309;-52
2023/04/11 22:00:14;;;;;;;9.73;6.75;;;;;;;10.59;52.68;96782.44;10400225;28;20576;-53
2023/04/11 22:05:13;;;;;;;9.60;6.20;;;;;;;10.65;52.51;96772.81;10400117;28;20115;-52
2023/04/11 22:10:13;;;;;;;8.93;5.03;;;;;;;10.33;52.76;96711.94;10396645;28;20028;-53
2023/04/11 22:15:12;;;;;;;11.00;6.72;;;;;;;10.67;52.79;96774.50;10397658;28;20124;-50
2023/04/11 22:20:12;;;;;;;7.43;5.55;;;;;;;10.66;52.41;96766.72;10397468;28;20143;-53
2023/04/11 22:25:11;;;;;;;6.85;4.95;;;;;;;10.60;53.00;96765.13;10399972;28;20494;-52
2023/04/11 22:30:10;;;;;;;;;;;;;;;10.66;52.71;96758.94;10402017;28;20111;-53
2023/04/11 22:35:09;;;;;;;7.40;4.90;;;;;;;10.59;53.07;96774.63;10400016;28;19967;-53
2023/04/11 22:40:10;;;;;;;;;;;;;;;10.64;54.02;96773.72;10400360;28;20604;-53
2023/04/11 22:45:09;;;;;;;6.70;4.60;;;;;;;10.56;53.31;96761.69;10401169;28;19956;-53
2023/04/11 22:50:08;;;;;;;;;;;;;;;10.44;54.35;96766.25;10398960;28;20056;-52
2023/04/11 22:55:10;;;;;;;7.30;4.97;;;;;;;10.48;53.95;96758.41;10399162;28;19920;-53
2023/04/11 23:00:11;;;;;;;7.22;4.90;;;;;;;10.46;53.14;96752.38;10399469;28;20143;-52
2023/04/11 23:05:10;;;;;;;8.75;5.13;;;;;;;10.49;53.88;96748.88;10399792;28;20072;-51
2023/04/11 23:10:12;;;;;;;;;;;;;;;10.59;53.59;96746.09;10401160;28;20079;-53
2023/04/11 23:15:11;;;;;;;6.68;4.90;;;;;;;10.58;53.48;96739.19;10399520;28;20408;-53
2023/04/11 23:20:11;;;;;;;8.45;5.47;;;;;;;10.51;53.61;96742.78;10399228;28;20139;-52